createdAt,value
2023-05-04T00:00:55.118Z,96.22
2023-05-04T00:01:55.030Z,95.56
2023-05-04T00:02:55.057Z,95.46
2023-05-04T00:03:55.010Z,95.56
2023-05-04T00:04:54.884Z,95.56
2023-05-04T00:05:54.706Z,96.22
2023-05-04T00:06:54.635Z,95.94
2023-05-04T00:07:54.537Z,95.94
2023-05-04T00:08:54.459Z,96.03
2023-05-04T00:09:54.379Z,96.03
2023-05-04T00:10:54.298Z,96.22
2023-05-04T00:11:54.213Z,96.22
2023-05-04T00:12:54.154Z,95.56
2023-05-04T00:13:54.049Z,96.03
2023-05-04T00:14:53.966Z,95.94
2023-05-04T00:15:53.926Z,96.41
2023-05-04T00:16:53.806Z,96.12
2023-05-04T00:17:53.763Z,95.75
2023-05-04T00:18:53.646Z,95.84
2023-05-04T00:19:53.559Z,95.60
2023-05-04T00:20:53.488Z,96.22
2023-05-04T00:21:53.391Z,95.65
2023-05-04T00:22:53.313Z,95.98
2023-05-04T00:23:53.229Z,95.51
2023-05-04T00:24:53.147Z,95.12
2023-05-04T00:25:53.068Z,95.79
2023-05-04T00:26:52.981Z,95.32
2023-05-04T00:27:52.899Z,95.70
2023-05-04T00:28:52.826Z,95.22
2023-05-04T00:29:52.737Z,95.51
2023-05-04T00:30:52.656Z,95.51
2023-05-04T00:31:52.793Z,95.51
2023-05-04T00:32:52.530Z,95.22
2023-05-04T00:33:52.414Z,95.79
2023-05-04T00:34:52.330Z,95.89
2023-05-04T00:35:52.244Z,96.17
2023-05-04T00:36:52.162Z,95.70
2023-05-04T00:37:52.099Z,95.98
2023-05-04T00:38:51.999Z,95.70
2023-05-04T00:39:51.915Z,95.03
2023-05-04T00:40:51.831Z,96.27
2023-05-04T00:41:51.756Z,96.03
2023-05-04T00:42:51.679Z,95.46
2023-05-04T00:43:51.589Z,95.84
2023-05-04T00:44:51.509Z,95.65
2023-05-04T00:45:51.426Z,95.84
2023-05-04T00:46:51.378Z,95.75
2023-05-04T00:47:51.292Z,96.03
2023-05-04T00:48:51.179Z,95.08
2023-05-04T00:49:51.095Z,95.46
2023-05-04T00:50:51.017Z,95.65
2023-05-04T00:51:50.937Z,94.98
2023-05-04T00:52:50.885Z,94.98
2023-05-04T00:53:50.776Z,95.08
2023-05-04T00:54:50.682Z,95.17
2023-05-04T00:55:50.599Z,95.08
2023-05-04T00:56:50.539Z,94.32
2023-05-04T00:57:50.444Z,94.98
2023-05-04T00:58:50.359Z,94.98
2023-05-04T00:59:50.272Z,94.32
2023-05-04T01:00:50.267Z,94.22
2023-05-04T01:01:50.104Z,94.70
2023-05-04T01:02:50.048Z,94.79
2023-05-04T01:03:49.977Z,94.98
2023-05-04T01:04:49.866Z,95.84
2023-05-04T01:05:49.785Z,95.94
2023-05-04T01:06:49.692Z,95.46
2023-05-04T01:07:49.611Z,94.98
2023-05-04T01:08:49.526Z,94.98
2023-05-04T01:09:49.452Z,95.17
2023-05-04T01:10:49.363Z,94.13
2023-05-04T01:11:49.282Z,95.08
2023-05-04T01:12:49.210Z,94.89
2023-05-04T01:13:49.111Z,94.79
2023-05-04T01:14:49.045Z,94.79
2023-05-04T01:15:48.950Z,94.98
2023-05-04T01:16:48.888Z,94.98
2023-05-04T01:17:48.804Z,95.08
2023-05-04T01:18:48.699Z,94.60
2023-05-04T01:19:48.623Z,94.22
2023-05-04T01:20:48.540Z,94.22
2023-05-04T01:21:48.455Z,94.51
2023-05-04T01:22:48.369Z,93.55
2023-05-04T01:23:48.296Z,93.46
2023-05-04T01:24:48.204Z,93.55
2023-05-04T01:25:48.123Z,93.27
2023-05-04T01:26:48.041Z,93.08
2023-05-04T01:27:47.959Z,93.94
2023-05-04T01:28:47.871Z,93.74
2023-05-04T01:29:47.798Z,93.37
2023-05-04T01:30:47.749Z,93.18
2023-05-04T01:31:47.632Z,92.41
2023-05-04T01:32:47.642Z,93.27
2023-05-04T01:33:47.460Z,92.60
2023-05-04T01:34:47.385Z,92.60
2023-05-04T01:35:47.292Z,92.70
2023-05-04T01:36:47.213Z,92.70
2023-05-04T01:37:47.133Z,92.79
2023-05-04T01:38:47.045Z,92.60
2023-05-04T01:39:46.960Z,93.37
2023-05-04T01:40:46.875Z,92.99
2023-05-04T01:41:46.794Z,93.84
2023-05-04T01:42:46.712Z,93.51
2023-05-04T01:43:46.627Z,93.51
2023-05-04T01:44:46.548Z,93.23
2023-05-04T01:45:46.477Z,93.23
2023-05-04T01:46:46.407Z,93.70
2023-05-04T01:47:46.380Z,93.32
2023-05-04T01:48:46.212Z,93.89
2023-05-04T01:49:46.131Z,93.23
2023-05-04T01:50:46.052Z,93.32
2023-05-04T01:51:45.964Z,93.89
2023-05-04T01:52:45.878Z,93.51
2023-05-04T01:53:45.800Z,93.32
2023-05-04T01:54:45.709Z,93.79
2023-05-04T01:55:45.631Z,93.13
2023-05-04T01:56:45.544Z,92.84
2023-05-04T01:57:45.468Z,92.94
2023-05-04T01:58:45.391Z,92.08
2023-05-04T01:59:45.294Z,92.75
2023-05-04T02:00:45.216Z,92.84
2023-05-04T02:01:45.227Z,93.23
2023-05-04T02:02:45.145Z,92.46
2023-05-04T02:03:45.084Z,92.75
2023-05-04T02:04:44.890Z,93.04
2023-05-04T02:05:44.810Z,92.75
2023-05-04T02:06:44.734Z,92.41
2023-05-04T02:07:44.631Z,92.65
2023-05-04T02:08:44.554Z,92.61
2023-05-04T02:09:44.472Z,93.13
2023-05-04T02:10:44.385Z,91.99
2023-05-04T02:11:44.299Z,91.89
2023-05-04T02:12:44.261Z,92.08
2023-05-04T02:13:44.135Z,91.75
2023-05-04T02:14:44.046Z,92.27
2023-05-04T02:15:44.000Z,91.80
2023-05-04T02:16:43.886Z,92.08
2023-05-04T02:17:43.846Z,91.80
2023-05-04T02:18:43.716Z,91.22
2023-05-04T02:19:43.636Z,91.99
2023-05-04T02:20:43.549Z,91.32
2023-05-04T02:21:43.464Z,92.08
2023-05-04T02:22:43.393Z,91.94
2023-05-04T02:23:43.297Z,92.03
2023-05-04T02:24:43.218Z,91.32
2023-05-04T02:25:43.137Z,91.28
2023-05-04T02:26:43.062Z,92.08
2023-05-04T02:27:42.967Z,91.85
2023-05-04T02:28:42.883Z,92.08
2023-05-04T02:29:42.808Z,91.42
2023-05-04T02:30:42.721Z,90.70
2023-05-04T02:31:42.674Z,91.08
2023-05-04T02:32:42.560Z,90.99
2023-05-04T02:33:42.461Z,91.08
2023-05-04T02:34:42.384Z,91.18
2023-05-04T02:35:42.302Z,91.08
2023-05-04T02:36:42.219Z,91.08
2023-05-04T02:37:42.132Z,90.99
2023-05-04T02:38:42.050Z,90.14
2023-05-04T02:39:41.962Z,91.08
2023-05-04T02:40:41.886Z,90.14
2023-05-04T02:41:41.798Z,90.42
2023-05-04T02:42:41.718Z,90.70
2023-05-04T02:43:41.634Z,90.04
2023-05-04T02:44:41.549Z,90.23
2023-05-04T02:45:41.486Z,89.94
2023-05-04T02:46:41.377Z,89.85
2023-05-04T02:47:41.313Z,90.33
2023-05-04T02:48:41.215Z,90.14
2023-05-04T02:49:41.147Z,90.52
2023-05-04T02:50:41.053Z,90.23
2023-05-04T02:51:40.965Z,90.52
2023-05-04T02:52:40.881Z,89.94
2023-05-04T02:53:40.802Z,91.37
2023-05-04T02:54:40.719Z,91.08
2023-05-04T02:55:40.636Z,90.89
2023-05-04T02:56:40.557Z,90.89
2023-05-04T02:57:40.464Z,91.28
2023-05-04T02:58:40.388Z,90.23
2023-05-04T02:59:40.297Z,90.42
2023-05-04T03:00:40.218Z,91.08
2023-05-04T03:01:40.255Z,92.13
2023-05-04T03:02:40.142Z,92.03
2023-05-04T03:03:39.965Z,92.22
2023-05-04T03:04:39.933Z,91.94
2023-05-04T03:05:39.798Z,91.85
2023-05-04T03:06:39.718Z,92.13
2023-05-04T03:07:39.631Z,92.13
2023-05-04T03:08:39.545Z,91.66
2023-05-04T03:09:39.470Z,91.94
2023-05-04T03:10:39.384Z,92.03
2023-05-04T03:11:39.295Z,91.85
2023-05-04T03:12:39.263Z,91.94
2023-05-04T03:13:39.139Z,91.47
2023-05-04T03:14:39.046Z,90.89
2023-05-04T03:15:38.969Z,91.47
2023-05-04T03:16:38.915Z,90.89
2023-05-04T03:17:38.827Z,91.13
2023-05-04T03:18:38.708Z,90.66
2023-05-04T03:19:38.627Z,91.04
2023-05-04T03:20:38.582Z,90.28
2023-05-04T03:21:38.458Z,89.90
2023-05-04T03:22:38.377Z,89.71
2023-05-04T03:23:38.289Z,89.42
2023-05-04T03:24:38.206Z,89.42
2023-05-04T03:25:38.128Z,89.04
2023-05-04T03:26:38.041Z,88.85
2023-05-04T03:27:37.954Z,89.71
2023-05-04T03:28:37.874Z,88.95
2023-05-04T03:29:37.800Z,89.90
2023-05-04T03:30:37.710Z,89.23
2023-05-04T03:31:37.687Z,89.04
2023-05-04T03:32:37.586Z,89.04
2023-05-04T03:33:37.464Z,89.04
2023-05-04T03:34:37.391Z,88.57
2023-05-04T03:35:37.282Z,89.14
2023-05-04T03:36:37.200Z,89.61
2023-05-04T03:37:37.114Z,89.14
2023-05-04T03:38:37.040Z,89.90
2023-05-04T03:39:36.948Z,89.42
2023-05-04T03:40:36.868Z,89.90
2023-05-04T03:41:36.785Z,89.42
2023-05-04T03:42:36.698Z,90.09
2023-05-04T03:43:36.615Z,90.28
2023-05-04T03:44:36.533Z,89.90
2023-05-04T03:45:36.449Z,89.80
2023-05-04T03:46:36.483Z,90.00
2023-05-04T03:47:36.367Z,90.00
2023-05-04T03:48:36.195Z,90.19
2023-05-04T03:49:36.117Z,89.61
2023-05-04T03:50:36.032Z,89.90
2023-05-04T03:51:35.944Z,89.90
2023-05-04T03:52:35.860Z,89.33
2023-05-04T03:53:35.825Z,89.42
2023-05-04T03:54:35.694Z,88.95
2023-05-04T03:55:35.610Z,89.71
2023-05-04T03:56:35.523Z,89.14
2023-05-04T03:57:35.435Z,89.14
2023-05-04T03:58:35.349Z,88.67
2023-05-04T03:59:35.268Z,88.85
2023-05-04T04:00:35.185Z,88.76
2023-05-04T04:01:35.113Z,89.33
2023-05-04T04:02:35.099Z,88.95
2023-05-04T04:03:34.965Z,89.23
2023-05-04T04:04:34.894Z,88.57
2023-05-04T04:05:34.766Z,88.57
2023-05-04T04:06:34.691Z,88.76
2023-05-04T04:07:34.593Z,88.38
2023-05-04T04:08:34.510Z,88.38
2023-05-04T04:09:34.426Z,88.57
2023-05-04T04:10:34.348Z,88.19
2023-05-04T04:11:34.265Z,88.28
2023-05-04T04:12:34.213Z,88.28
2023-05-04T04:13:34.090Z,88.47
2023-05-04T04:14:34.010Z,88.76
2023-05-04T04:15:33.917Z,88.67
2023-05-04T04:16:33.875Z,89.33
2023-05-04T04:17:33.905Z,89.33
2023-05-04T04:18:33.671Z,89.04
2023-05-04T04:19:33.587Z,89.14
2023-05-04T04:20:33.509Z,88.95
2023-05-04T04:21:33.422Z,89.23
2023-05-04T04:22:33.331Z,89.04
2023-05-04T04:23:33.256Z,90.09
2023-05-04T04:24:33.168Z,89.33
2023-05-04T04:25:33.094Z,89.23
2023-05-04T04:26:32.997Z,89.14
2023-05-04T04:27:32.927Z,89.23
2023-05-04T04:28:32.829Z,89.14
2023-05-04T04:29:32.748Z,89.14
2023-05-04T04:30:32.671Z,89.14
2023-05-04T04:31:32.629Z,89.42
2023-05-04T04:32:32.547Z,89.33
2023-05-04T04:33:32.421Z,88.67
2023-05-04T04:34:32.335Z,89.71
2023-05-04T04:35:32.245Z,89.80
2023-05-04T04:36:32.157Z,89.28
2023-05-04T04:37:32.077Z,89.33
2023-05-04T04:38:31.995Z,89.23
2023-05-04T04:39:31.968Z,89.04
2023-05-04T04:40:31.831Z,89.18
2023-05-04T04:41:31.739Z,89.42
2023-05-04T04:42:31.665Z,89.90
2023-05-04T04:43:31.576Z,89.23
2023-05-04T04:44:31.485Z,89.90
2023-05-04T04:45:33.179Z,89.52
2023-05-04T04:46:31.340Z,89.56
2023-05-04T04:47:31.266Z,89.18
2023-05-04T04:48:31.147Z,90.04
2023-05-04T04:49:31.198Z,89.18
2023-05-04T04:50:30.989Z,89.28
2023-05-04T04:51:30.904Z,89.28
2023-05-04T04:52:30.814Z,89.75
2023-05-04T04:53:30.735Z,89.66
2023-05-04T04:54:30.650Z,90.04
2023-05-04T04:55:30.566Z,90.33
2023-05-04T04:56:30.481Z,89.47
2023-05-04T04:57:31.743Z,90.04
2023-05-04T04:58:31.102Z,90.33
2023-05-04T04:59:30.233Z,89.66
2023-05-04T05:00:30.159Z,90.04
2023-05-04T05:01:30.184Z,90.14
2023-05-04T05:02:30.004Z,90.23
2023-05-04T05:03:29.905Z,90.80
2023-05-04T05:04:29.883Z,90.94
2023-05-04T05:05:31.694Z,91.08
2023-05-04T05:06:29.647Z,90.84
2023-05-04T05:07:29.575Z,91.28
2023-05-04T05:08:29.480Z,91.32
2023-05-04T05:09:29.402Z,91.42
2023-05-04T05:10:29.326Z,90.94
2023-05-04T05:11:29.233Z,91.13
2023-05-04T05:12:29.191Z,91.51
2023-05-04T05:13:29.069Z,91.80
2023-05-04T05:14:28.990Z,92.08
2023-05-04T05:15:28.924Z,91.89
2023-05-04T05:16:28.886Z,92.18
2023-05-04T05:17:28.760Z,93.13
2023-05-04T05:18:28.652Z,92.94
2023-05-04T05:19:28.588Z,92.84
2023-05-04T05:20:28.485Z,92.75
2023-05-04T05:21:28.406Z,92.27
2023-05-04T05:22:28.321Z,93.23
2023-05-04T05:23:28.242Z,92.84
2023-05-04T05:24:28.153Z,93.23
2023-05-04T05:25:28.071Z,93.51
2023-05-04T05:26:27.990Z,93.37
2023-05-04T05:27:27.997Z,93.46
2023-05-04T05:28:27.825Z,93.27
2023-05-04T05:29:27.738Z,93.94
2023-05-04T05:30:27.658Z,93.84
2023-05-04T05:31:27.657Z,93.65
2023-05-04T05:32:27.509Z,93.27
2023-05-04T05:33:27.430Z,93.94
2023-05-04T05:34:27.348Z,94.13
2023-05-04T05:35:27.247Z,93.65
2023-05-04T05:36:27.176Z,93.84
2023-05-04T05:37:27.079Z,93.84
2023-05-04T05:38:26.993Z,94.32
2023-05-04T05:39:26.911Z,94.22
2023-05-04T05:40:26.831Z,94.42
2023-05-04T05:41:26.748Z,93.94
2023-05-04T05:42:26.702Z,94.13
2023-05-04T05:43:26.605Z,93.94
2023-05-04T05:44:26.513Z,94.13
2023-05-04T05:45:26.431Z,94.32
2023-05-04T05:46:26.391Z,94.13
2023-05-04T05:47:26.290Z,94.13
2023-05-04T05:48:26.169Z,94.03
2023-05-04T05:49:26.085Z,93.94
2023-05-04T05:50:26.004Z,93.84
2023-05-04T05:51:25.923Z,93.46
2023-05-04T05:52:25.840Z,93.08
2023-05-04T05:53:25.797Z,92.51
2023-05-04T05:54:25.674Z,92.74
2023-05-04T05:55:25.590Z,93.70
2023-05-04T05:56:25.513Z,93.51
2023-05-04T05:57:25.448Z,93.32
2023-05-04T05:58:25.345Z,93.51
2023-05-04T05:59:25.275Z,93.32
2023-05-04T06:00:25.227Z,93.32
2023-05-04T06:01:25.099Z,93.70
2023-05-04T06:02:25.046Z,93.41
2023-05-04T06:03:25.126Z,93.79
2023-05-04T06:04:24.891Z,94.37
2023-05-04T06:05:24.793Z,94.46
2023-05-04T06:06:24.694Z,94.41
2023-05-04T06:07:24.606Z,93.84
2023-05-04T06:08:24.542Z,94.41
2023-05-04T06:09:24.445Z,93.93
2023-05-04T06:10:24.355Z,94.03
2023-05-04T06:11:24.305Z,94.41
2023-05-04T06:12:24.194Z,93.93
2023-05-04T06:13:24.121Z,94.70
2023-05-04T06:14:24.033Z,94.51
2023-05-04T06:15:23.948Z,94.70
2023-05-04T06:16:23.898Z,94.22
2023-05-04T06:17:23.807Z,94.32
2023-05-04T06:18:23.708Z,94.79
2023-05-04T06:19:23.623Z,95.08
2023-05-04T06:20:23.540Z,95.12
2023-05-04T06:21:23.461Z,95.79
2023-05-04T06:22:23.385Z,94.93
2023-05-04T06:23:23.297Z,95.32
2023-05-04T06:24:23.214Z,95.32
2023-05-04T06:25:23.136Z,95.41
2023-05-04T06:26:23.051Z,95.22
2023-05-04T06:27:24.332Z,95.12
2023-05-04T06:28:22.934Z,95.12
2023-05-04T06:29:22.813Z,95.98
2023-05-04T06:30:22.723Z,95.98
2023-05-04T06:31:22.696Z,95.61
2023-05-04T06:32:22.725Z,95.70
2023-05-04T06:33:22.476Z,95.79
2023-05-04T06:34:22.400Z,96.32
2023-05-04T06:35:22.318Z,96.13
2023-05-04T06:36:22.240Z,95.65
2023-05-04T06:37:22.162Z,96.51
2023-05-04T06:38:22.087Z,96.13
2023-05-04T06:39:22.013Z,96.22
2023-05-04T06:40:21.913Z,96.22
2023-05-04T06:41:21.877Z,96.41
2023-05-04T06:42:21.756Z,96.70
2023-05-04T06:43:21.668Z,96.51
2023-05-04T06:44:21.590Z,96.51
2023-05-04T06:45:21.509Z,96.51
2023-05-04T06:46:21.592Z,96.32
2023-05-04T06:47:21.345Z,96.32
2023-05-04T06:48:21.264Z,97.08
2023-05-04T06:49:21.189Z,96.51
2023-05-04T06:50:21.106Z,96.80
2023-05-04T06:51:21.037Z,96.46
2023-05-04T06:52:20.939Z,96.84
2023-05-04T06:53:20.861Z,97.13
2023-05-04T06:54:20.786Z,97.61
2023-05-04T06:55:20.707Z,97.42
2023-05-04T06:56:20.610Z,97.51
2023-05-04T06:57:20.537Z,97.32
2023-05-04T06:58:20.464Z,96.94
2023-05-04T06:59:20.378Z,97.42
2023-05-04T07:00:20.300Z,97.99
2023-05-04T07:01:20.262Z,97.51
2023-05-04T07:02:20.136Z,97.89
2023-05-04T07:03:20.074Z,97.71
2023-05-04T07:04:19.968Z,97.42
2023-05-04T07:05:19.890Z,97.22
2023-05-04T07:06:19.808Z,97.85
2023-05-04T07:07:19.732Z,97.47
2023-05-04T07:08:19.654Z,97.94
2023-05-04T07:09:19.566Z,97.75
2023-05-04T07:10:19.567Z,97.47
2023-05-04T07:11:19.413Z,97.66
2023-05-04T07:12:19.328Z,97.75
2023-05-04T07:13:19.253Z,98.13
2023-05-04T07:14:19.180Z,97.47
2023-05-04T07:15:19.088Z,97.94
2023-05-04T07:16:19.085Z,98.32
2023-05-04T07:17:18.923Z,98.23
2023-05-04T07:18:18.842Z,97.85
2023-05-04T07:19:18.769Z,97.37
2023-05-04T07:20:18.685Z,97.66
2023-05-04T07:21:27.743Z,97.37
2023-05-04T07:22:18.521Z,97.71
2023-05-04T07:23:18.445Z,97.61
2023-05-04T07:24:18.357Z,97.52
2023-05-04T07:25:18.280Z,97.61
2023-05-04T07:26:18.204Z,97.89
2023-05-04T07:27:18.135Z,97.71
2023-05-04T07:28:18.042Z,97.42
2023-05-04T07:29:17.972Z,97.71
2023-05-04T07:30:17.877Z,98.28
2023-05-04T07:31:17.801Z,97.89
2023-05-04T07:32:17.791Z,97.99
2023-05-04T07:33:17.673Z,97.80
2023-05-04T07:34:17.561Z,97.85
2023-05-04T07:35:17.485Z,97.52
2023-05-04T07:36:17.405Z,97.85
2023-05-04T07:37:17.330Z,97.56
2023-05-04T07:38:17.233Z,98.04
2023-05-04T07:39:17.164Z,97.66
2023-05-04T07:40:17.094Z,97.66
2023-05-04T07:41:17.004Z,98.33
2023-05-04T07:42:16.922Z,97.66
2023-05-04T07:43:16.833Z,98.33
2023-05-04T07:44:16.757Z,98.52
2023-05-04T07:45:16.705Z,98.52
2023-05-04T07:46:16.651Z,98.42
2023-05-04T07:47:16.520Z,98.52
2023-05-04T07:48:17.799Z,97.56
2023-05-04T07:49:16.361Z,98.42
2023-05-04T07:50:16.282Z,99.28
2023-05-04T07:51:16.195Z,98.52
2023-05-04T07:52:16.124Z,98.04
2023-05-04T07:53:16.037Z,97.56
2023-05-04T07:54:15.963Z,98.28
2023-05-04T07:55:15.882Z,98.28
2023-05-04T07:56:15.813Z,97.56
2023-05-04T07:57:15.723Z,97.75
2023-05-04T07:58:15.642Z,97.71
2023-05-04T07:59:15.563Z,98.61
2023-05-04T08:00:15.482Z,97.71
2023-05-04T08:01:15.418Z,97.99
2023-05-04T08:02:15.339Z,98.28
2023-05-04T08:03:15.253Z,97.80
2023-05-04T08:04:15.158Z,97.80
2023-05-04T08:05:15.108Z,97.90
2023-05-04T08:06:15.005Z,98.38
2023-05-04T08:07:14.923Z,97.71
2023-05-04T08:08:14.846Z,98.57
2023-05-04T08:09:14.759Z,97.99
2023-05-04T08:10:14.688Z,97.71
2023-05-04T08:11:20.459Z,97.42
2023-05-04T08:12:14.522Z,97.71
2023-05-04T08:13:14.519Z,97.71
2023-05-04T08:14:14.364Z,97.80
2023-05-04T08:15:14.284Z,97.52
2023-05-04T08:16:14.208Z,97.52
2023-05-04T08:17:14.180Z,97.75
2023-05-04T08:18:14.048Z,96.94
2023-05-04T08:19:13.967Z,97.75
2023-05-04T08:20:13.889Z,97.08
2023-05-04T08:21:13.804Z,97.28
2023-05-04T08:22:13.725Z,97.47
2023-05-04T08:23:13.648Z,97.75
2023-05-04T08:24:13.574Z,98.14
2023-05-04T08:25:13.495Z,98.52
2023-05-04T08:26:13.415Z,97.75
2023-05-04T08:27:13.333Z,97.56
2023-05-04T08:28:13.251Z,97.85
2023-05-04T08:29:13.169Z,97.95
2023-05-04T08:30:13.087Z,97.47
2023-05-04T08:31:13.065Z,97.95
2023-05-04T08:32:12.941Z,97.95
2023-05-04T08:33:12.971Z,98.24
2023-05-04T08:34:12.772Z,97.85
2023-05-04T08:35:12.750Z,97.66
2023-05-04T08:36:12.615Z,97.66
2023-05-04T08:37:12.534Z,97.56
2023-05-04T08:38:12.461Z,96.70
2023-05-04T08:39:12.398Z,96.89
2023-05-04T08:40:12.319Z,96.94
2023-05-04T08:41:12.221Z,97.13
2023-05-04T08:42:12.140Z,96.89
2023-05-04T08:43:12.062Z,96.84
2023-05-04T08:44:11.980Z,96.84
2023-05-04T08:45:11.931Z,96.75
2023-05-04T08:46:11.862Z,96.94
2023-05-04T08:47:11.744Z,96.56
2023-05-04T08:48:11.676Z,97.04
2023-05-04T08:49:11.591Z,97.04
2023-05-04T08:50:11.506Z,96.75
2023-05-04T08:51:11.425Z,96.94
2023-05-04T08:52:11.353Z,96.84
2023-05-04T08:53:11.274Z,96.75
2023-05-04T08:54:11.190Z,96.56
2023-05-04T08:55:11.107Z,96.56
2023-05-04T08:56:11.027Z,96.75
2023-05-04T08:57:10.967Z,96.47
2023-05-04T08:58:10.874Z,96.56
2023-05-04T08:59:10.795Z,96.94
2023-05-04T09:00:10.713Z,96.70
2023-05-04T09:01:10.710Z,96.61
2023-05-04T09:02:10.586Z,95.56
2023-05-04T09:03:10.618Z,95.56
2023-05-04T09:04:10.397Z,95.94
2023-05-04T09:05:10.330Z,96.80
2023-05-04T09:06:10.242Z,96.22
2023-05-04T09:07:10.158Z,95.65
2023-05-04T09:08:10.079Z,94.60
2023-05-04T09:09:10.023Z,95.65
2023-05-04T09:10:09.915Z,95.17
2023-05-04T09:11:09.850Z,95.17
2023-05-04T09:12:09.766Z,94.60
2023-05-04T09:13:09.701Z,93.64
2023-05-04T09:14:09.610Z,93.26
2023-05-04T09:15:09.521Z,94.26
2023-05-04T09:16:09.454Z,95.03
2023-05-04T09:17:09.399Z,95.70
2023-05-04T09:18:09.315Z,94.40
2023-05-04T09:19:09.210Z,93.69
2023-05-04T09:20:09.132Z,93.30
2023-05-04T09:21:09.119Z,94.93
2023-05-04T09:22:08.980Z,94.84
2023-05-04T09:23:08.940Z,94.17
2023-05-04T09:24:08.810Z,94.45
2023-05-04T09:25:08.747Z,94.35
2023-05-04T09:26:08.654Z,93.02
2023-05-04T09:27:08.573Z,92.25
2023-05-04T09:28:08.503Z,92.25
2023-05-04T09:29:08.420Z,91.29
2023-05-04T09:30:08.344Z,90.14
2023-05-04T09:31:08.292Z,89.95
2023-05-04T09:32:08.182Z,89.57
2023-05-04T09:33:08.105Z,89.18
2023-05-04T09:34:08.025Z,89.37
2023-05-04T09:35:08.555Z,90.81
2023-05-04T09:36:07.877Z,91.53
2023-05-04T09:37:07.818Z,91.58
2023-05-04T09:38:07.711Z,91.24
2023-05-04T09:39:09.035Z,92.15
2023-05-04T09:40:07.557Z,92.01
2023-05-04T09:41:07.477Z,92.39
2023-05-04T09:42:07.395Z,92.68
2023-05-04T09:43:07.315Z,91.72
2023-05-04T09:44:07.249Z,91.72
2023-05-04T09:45:07.298Z,91.34
2023-05-04T09:46:07.108Z,92.49
2023-05-04T09:47:07.007Z,92.97
2023-05-04T09:48:06.924Z,93.06
2023-05-04T09:49:06.839Z,92.20
2023-05-04T09:50:06.766Z,90.95
2023-05-04T09:51:06.689Z,90.67
2023-05-04T09:52:06.624Z,90.09
2023-05-04T09:53:06.556Z,90.28
2023-05-04T09:54:06.464Z,89.61
2023-05-04T09:55:06.591Z,89.23
2023-05-04T09:56:08.104Z,88.08
2023-05-04T09:57:06.223Z,88.98
2023-05-04T09:58:06.137Z,88.08
2023-05-04T09:59:06.057Z,87.84
2023-05-04T10:00:05.981Z,89.08
2023-05-04T10:01:05.906Z,88.12
2023-05-04T10:02:14.408Z,88.02
2023-05-04T10:03:05.792Z,88.12
2023-05-04T10:04:05.688Z,86.88
2023-05-04T10:05:05.781Z,85.25
2023-05-04T10:06:05.518Z,85.44
2023-05-04T10:07:05.435Z,86.01
2023-05-04T10:08:05.359Z,86.88
2023-05-04T10:09:05.288Z,86.01
2023-05-04T10:10:05.204Z,86.11
2023-05-04T10:11:05.119Z,86.01
2023-05-04T10:12:05.038Z,84.77
2023-05-04T10:13:05.055Z,82.37
2023-05-04T10:14:04.885Z,83.23
2023-05-04T10:15:04.941Z,83.61
2023-05-04T10:16:04.749Z,82.12
2023-05-04T10:17:04.654Z,81.07
2023-05-04T10:18:04.568Z,80.40
2023-05-04T10:19:04.498Z,80.87
2023-05-04T10:20:04.422Z,82.21
2023-05-04T10:21:04.336Z,82.03
2023-05-04T10:22:04.278Z,83.18
2023-05-04T10:23:04.187Z,80.58
2023-05-04T10:24:04.103Z,80.20
2023-05-04T10:25:04.295Z,80.97
2023-05-04T10:26:03.947Z,81.16
2023-05-04T10:27:03.872Z,80.49
2023-05-04T10:28:03.786Z,80.68
2023-05-04T10:29:03.726Z,80.68
2023-05-04T10:30:03.633Z,79.82
2023-05-04T10:31:03.551Z,80.97
2023-05-04T10:32:03.607Z,80.15
2023-05-04T10:33:03.467Z,80.05
2023-05-04T10:34:03.327Z,80.82
2023-05-04T10:35:03.501Z,82.07
2023-05-04T10:36:03.168Z,79.76
2023-05-04T10:37:03.117Z,80.43
2023-05-04T10:38:03.014Z,79.57
2023-05-04T10:39:02.936Z,77.56
2023-05-04T10:40:02.860Z,77.59
2023-05-04T10:41:02.784Z,77.17
2023-05-04T10:42:02.727Z,78.36
2023-05-04T10:43:02.633Z,76.15
2023-05-04T10:44:02.543Z,74.23
2023-05-04T10:45:02.607Z,72.31
2023-05-04T10:46:02.423Z,73.18
2023-05-04T10:47:02.322Z,73.56
2023-05-04T10:48:02.283Z,73.75
2023-05-04T10:49:02.180Z,72.89
2023-05-04T10:50:02.109Z,71.64
2023-05-04T10:51:02.008Z,70.58
2023-05-04T10:52:01.927Z,70.49
2023-05-04T10:53:01.851Z,71.06
2023-05-04T10:54:01.791Z,71.00
2023-05-04T10:55:01.723Z,70.72
2023-05-04T10:56:01.619Z,71.19
2023-05-04T10:57:01.540Z,70.81
2023-05-04T10:58:01.473Z,71.19
2023-05-04T10:59:01.389Z,69.85
2023-05-04T11:00:01.320Z,68.60
2023-05-04T11:01:01.267Z,67.64
2023-05-04T11:02:01.167Z,67.83
2023-05-04T11:03:01.220Z,68.51
2023-05-04T11:04:01.027Z,68.21
2023-05-04T11:05:00.927Z,68.60
2023-05-04T11:06:00.849Z,68.60
2023-05-04T11:07:00.797Z,69.21
2023-05-04T11:08:00.695Z,70.07
2023-05-04T11:09:00.628Z,70.07
2023-05-04T11:10:00.546Z,68.92
2023-05-04T11:11:00.468Z,67.77
2023-05-04T11:12:00.383Z,68.29
2023-05-04T11:13:00.345Z,66.71
2023-05-04T11:14:00.240Z,65.50
2023-05-04T11:15:00.185Z,66.33
2023-05-04T11:16:00.097Z,66.36
2023-05-04T11:17:00.002Z,64.92
2023-05-04T11:17:59.946Z,64.92
2023-05-04T11:18:59.859Z,67.71
2023-05-04T11:19:59.776Z,68.19
2023-05-04T11:20:59.697Z,67.61
2023-05-04T11:21:59.621Z,68.29
2023-05-04T11:22:59.539Z,67.32
2023-05-04T11:23:59.483Z,65.40
2023-05-04T11:24:59.392Z,66.97
2023-05-04T11:25:59.315Z,67.03
2023-05-04T11:26:59.248Z,66.10
2023-05-04T11:27:59.165Z,63.51
2023-05-04T11:28:59.124Z,64.66
2023-05-04T11:29:59.010Z,63.70
2023-05-04T11:30:58.943Z,62.54
2023-05-04T11:31:58.934Z,61.77
2023-05-04T11:32:58.826Z,61.97
2023-05-04T11:33:58.715Z,61.39
2023-05-04T11:34:58.624Z,61.10
2023-05-04T11:35:58.556Z,62.54
2023-05-04T11:36:58.478Z,64.08
2023-05-04T11:37:58.416Z,62.06
2023-05-04T11:38:58.339Z,63.22
2023-05-04T11:39:58.261Z,64.98
2023-05-04T11:40:58.177Z,64.12
2023-05-04T11:41:58.100Z,63.06
2023-05-04T11:42:58.027Z,61.22
2023-05-04T11:43:57.942Z,61.71
2023-05-04T11:44:57.876Z,62.87
2023-05-04T11:45:57.797Z,63.15
2023-05-04T11:46:57.712Z,62.99
2023-05-04T11:47:57.698Z,60.84
2023-05-04T11:48:57.563Z,63.38
2023-05-04T11:49:57.489Z,65.50
2023-05-04T11:50:57.421Z,65.50
2023-05-04T11:51:57.334Z,63.47
2023-05-04T11:52:57.264Z,63.18
2023-05-04T11:53:57.192Z,60.68
2023-05-04T11:54:57.127Z,60.80
2023-05-04T11:55:57.038Z,59.36
2023-05-04T11:56:56.960Z,59.72
2023-05-04T11:57:56.890Z,60.23
2023-05-04T11:58:56.808Z,60.23
2023-05-04T11:59:56.736Z,60.23
2023-05-04T12:00:56.673Z,58.49
2023-05-04T12:01:56.589Z,57.34
2023-05-04T12:02:56.583Z,56.18
2023-05-04T12:03:56.616Z,56.57
2023-05-04T12:04:56.356Z,56.95
2023-05-04T12:05:56.369Z,56.95
2023-05-04T12:06:56.207Z,56.30
2023-05-04T12:07:56.135Z,54.66
2023-05-04T12:08:56.056Z,51.75
2023-05-04T12:09:55.989Z,50.78
2023-05-04T12:10:55.908Z,51.56
2023-05-04T12:11:55.832Z,51.36
2023-05-04T12:12:55.780Z,51.39
2023-05-04T12:13:55.686Z,51.87
2023-05-04T12:14:55.606Z,52.35
2023-05-04T12:15:55.584Z,51.10
2023-05-04T12:16:55.600Z,48.40
2023-05-04T12:17:55.409Z,47.65
2023-05-04T12:18:55.310Z,48.71
2023-05-04T12:19:55.234Z,49.29
2023-05-04T12:20:55.154Z,50.57
2023-05-04T12:21:55.083Z,49.22
2023-05-04T12:22:55.019Z,49.51
2023-05-04T12:23:54.934Z,48.28
2023-05-04T12:24:54.864Z,47.99
2023-05-04T12:25:58.373Z,48.66
2023-05-04T12:26:54.753Z,47.50
2023-05-04T12:27:54.635Z,47.60
2023-05-04T12:28:54.564Z,50.13
2023-05-04T12:29:54.494Z,47.91
2023-05-04T12:30:54.419Z,47.14
2023-05-04T12:31:54.375Z,46.66
2023-05-04T12:32:54.361Z,48.03
2023-05-04T12:33:54.189Z,47.48
2023-05-04T12:34:54.121Z,46.03
2023-05-04T12:35:54.050Z,44.98
2023-05-04T12:36:53.975Z,44.70
2023-05-04T12:37:53.905Z,43.75
2023-05-04T12:38:53.842Z,44.74
2023-05-04T12:39:53.749Z,43.60
2023-05-04T12:40:53.691Z,41.76
2023-05-04T12:41:53.610Z,44.42
2023-05-04T12:42:53.531Z,44.48
2023-05-04T12:43:53.459Z,40.72
2023-05-04T12:44:53.397Z,38.11
2023-05-04T12:45:53.381Z,37.95
2023-05-04T12:46:53.249Z,39.57
2023-05-04T12:47:53.196Z,35.78
2023-05-04T12:48:53.104Z,34.14
2023-05-04T12:49:53.055Z,33.56
2023-05-04T12:50:52.967Z,34.57
2023-05-04T12:51:52.896Z,34.50